Time;durP1;ratioP1;P1;durP2;ratioP2;P2;SDS_P1;SDS_P2;PMS_P1;PMS_P2;Temp;Humidity;BMP_temperature;BMP_pressure;BME280_temperature;BME280_humidity;BME280_pressure;Samples;Min_cycle;Max_cycle;Signal;HPM_P1;HPM_P2
2022/03/11 00:00:31;;;;;;;21.67;17.50;;;;;;;4.35;81.83;95941.41;6300487;22;20071;-60
2022/03/11 00:02:57;;;;;;;22.27;18.40;;;;;;;4.36;81.76;95940.47;6300789;22;20007;-60
2022/03/11 00:05:22;;;;;;;24.73;17.63;;;;;;;4.42;81.21;95934.06;6300490;22;20035;-60
2022/03/11 00:07:48;;;;;;;21.75;18.08;;;;;;;4.45;81.86;95939.06;6300476;22;20010;-60
2022/03/11 00:10:13;;;;;;;22.50;19.15;;;;;;;4.41;82.18;95929.78;6300518;22;20003;-60
2022/03/11 00:12:39;;;;;;;30.27;22.25;;;;;;;4.42;82.23;95931.44;6300416;22;20049;-60
2022/03/11 00:15:06;;;;;;;49.40;31.10;;;;;;;4.50;80.60;95928.34;6300591;22;20010;-60
2022/03/11 00:17:32;;;;;;;47.17;31.80;;;;;;;4.46;81.48;95919.88;6300931;22;20346;-60
2022/03/11 00:19:58;;;;;;;48.67;31.17;;;;;;;4.55;80.16;95924.53;6300549;22;20029;-60
2022/03/11 00:22:23;;;;;;;42.67;28.48;;;;;;;4.65;79.43;95918.69;6300126;22;20479;-59
2022/03/11 00:24:48;;;;;;;45.88;28.73;;;;;;;4.63;80.57;95918.78;6300446;22;20014;-59
2022/03/11 00:27:14;;;;;;;48.35;31.38;;;;;;;4.61;81.03;95915.44;6299660;22;20384;-59
2022/03/11 00:29:39;;;;;;;38.10;24.70;;;;;;;4.54;81.46;95917.63;6300542;22;20003;-59
2022/03/11 00:32:05;;;;;;;39.92;25.50;;;;;;;4.50;81.06;95920.53;6300372;22;19999;-59
2022/03/11 00:34:30;;;;;;;40.80;26.38;;;;;;;4.55;80.60;95916.69;6300492;22;20007;-59
2022/03/11 00:36:55;;;;;;;36.03;24.35;;;;;;;4.52;80.77;95919.47;6300215;22;20011;-59
2022/03/11 00:39:21;;;;;;;32.97;24.45;;;;;;;4.49;81.05;95917.06;6300300;22;20004;-59
2022/03/11 00:41:46;;;;;;;35.80;24.48;;;;;;;4.43;81.66;95920.94;6300439;22;20007;-59
2022/03/11 00:44:12;;;;;;;31.88;20.88;;;;;;;4.41;81.63;95922.78;6300573;22;20003;-59
2022/03/11 00:46:37;;;;;;;30.77;22.10;;;;;;;4.47;81.28;95915.50;6300045;22;20034;-58
2022/03/11 00:49:03;;;;;;;27.42;19.92;;;;;;;4.44;81.39;95913.94;6300354;22;20004;-59
2022/03/11 00:51:28;;;;;;;24.65;17.92;;;;;;;4.42;81.99;95918.41;6300250;22;20343;-59
2022/03/11 00:53:53;;;;;;;24.75;17.17;;;;;;;4.40;81.65;95925.50;6300259;22;20007;-59
2022/03/11 00:56:19;;;;;;;21.30;17.77;;;;;;;4.30;83.09;95927.84;6300224;22;20000;-58
2022/03/11 00:58:46;;;;;;;21.63;15.43;;;;;;;4.18;84.39;95924.25;6300624;22;20438;-59
2022/03/11 01:01:11;;;;;;;20.35;15.70;;;;;;;4.19;83.65;95925.91;6301590;22;20032;-59
2022/03/11 01:03:37;;;;;;;17.08;14.88;;;;;;;4.20;84.08;95911.97;6274382;22;20011;-59
2022/03/11 01:06:02;;;;;;;15.75;14.15;;;;;;;4.21;84.05;95916.22;6301498;22;20011;-59
2022/03/11 01:08:28;;;;;;;15.40;13.57;;;;;;;4.23;83.58;95909.16;6301355;22;20007;-59
2022/03/11 01:10:53;;;;;;;15.60;13.70;;;;;;;4.25;83.63;95902.06;6301776;22;20011;-59
2022/03/11 01:13:18;;;;;;;15.52;12.70;;;;;;;4.29;83.13;95902.72;6274112;22;20003;-59
2022/03/11 01:15:44;;;;;;;15.70;13.00;;;;;;;4.28;83.22;95904.47;6301630;22;20009;-59
2022/03/11 01:18:09;;;;;;;15.68;12.70;;;;;;;4.28;83.54;95901.88;6301343;22;20346;-59
2022/03/11 01:20:34;;;;;;;16.27;12.25;;;;;;;4.30;83.59;95897.38;6301457;22;20055;-59
2022/03/11 01:23:00;;;;;;;14.80;13.30;;;;;;;4.26;84.19;95893.31;6301426;22;20074;-59
2022/03/11 01:25:25;;;;;;;15.95;13.35;;;;;;;4.21;84.14;95898.00;6301255;22;20011;-60
2022/03/11 01:27:51;;;;;;;13.23;11.98;;;;;;;4.17;83.66;95891.31;6301802;22;20390;-59
2022/03/11 01:30:16;;;;;;;15.23;13.63;;;;;;;4.15;83.49;95891.38;6301395;22;20034;-59
2022/03/11 01:32:43;;;;;;;18.52;14.35;;;;;;;4.14;83.50;95892.31;6301169;22;20347;-59
2022/03/11 01:35:10;;;;;;;17.38;14.60;;;;;;;4.09;84.36;95890.94;6301429;22;19999;-59
2022/03/11 01:37:35;;;;;;;15.70;13.70;;;;;;;4.01;83.93;95884.44;6301012;22;20003;-59
2022/03/11 01:40:02;;;;;;;15.95;14.25;;;;;;;3.98;84.07;95883.81;6301468;22;20439;-59
2022/03/11 01:42:27;;;;;;;15.25;12.27;;;;;;;3.92;83.94;95882.44;6301333;22;20015;-59
2022/03/11 01:44:53;;;;;;;15.98;13.45;;;;;;;3.91;83.89;95891.19;6301329;22;20003;-59
2022/03/11 01:47:18;;;;;;;15.57;13.85;;;;;;;3.92;83.73;95886.78;6301218;22;20010;-59
2022/03/11 01:49:44;;;;;;;15.00;12.75;;;;;;;3.88;83.75;95878.34;6301408;22;20003;-60
2022/03/11 01:52:12;;;;;;;13.93;12.38;;;;;;;3.79;84.96;95882.38;6274090;22;20003;-59
2022/03/11 01:54:41;;;;;;;16.75;12.70;;;;;;;3.74;84.96;95879.19;6301621;22;20427;-59
2022/03/11 01:57:07;;;;;;;23.38;16.08;;;;;;;3.70;85.31;95875.97;6301253;22;19999;-59
2022/03/11 01:59:33;;;;;;;15.05;13.38;;;;;;;3.68;85.36;95871.75;6301128;22;20008;-59
2022/03/11 02:01:58;;;;;;;15.23;13.65;;;;;;;3.69;85.05;95865.63;6300970;22;20042;-59
2022/03/11 02:04:23;;;;;;;14.18;12.68;;;;;;;3.66;85.51;95863.22;6300973;22;20010;-59
2022/03/11 02:06:49;;;;;;;17.33;13.82;;;;;;;3.58;84.87;95864.53;6300848;22;20469;-59
2022/03/11 02:09:15;;;;;;;14.07;12.43;;;;;;;3.51;85.59;95865.00;6300980;22;20029;-59
2022/03/11 02:11:40;;;;;;;13.90;12.50;;;;;;;3.40;85.53;95858.66;6300521;22;20012;-59
2022/03/11 02:14:05;;;;;;;16.38;13.45;;;;;;;3.37;85.03;95853.66;6301262;22;19999;-58
2022/03/11 02:16:36;;;;;;;14.10;12.63;;;;;;;3.37;85.92;95856.25;6301202;22;20003;-59
2022/03/11 02:19:01;;;;;;;12.00;10.90;;;;;;;3.36;85.45;95857.19;6301313;22;20343;-59
2022/03/11 02:21:27;;;;;;;12.68;11.48;;;;;;;3.40;85.39;95857.84;6301103;22;20011;-59
2022/03/11 02:23:58;;;;;;;13.32;11.93;;;;;;;3.40;85.33;95845.66;6301199;22;20003;-59
2022/03/11 02:26:25;;;;;;;12.82;11.35;;;;;;;3.37;85.38;95850.22;6300583;22;20018;-59
2022/03/11 02:28:52;;;;;;;14.65;12.73;;;;;;;3.35;85.95;95850.31;6301195;22;20006;-59
2022/03/11 02:31:19;;;;;;;12.63;11.07;;;;;;;3.28;86.20;95847.25;6300909;22;20003;-59
2022/03/11 02:33:45;;;;;;;15.10;11.23;;;;;;;3.22;86.57;95849.41;6300922;22;20007;-59
2022/03/11 02:36:10;;;;;;;14.80;11.20;;;;;;;3.21;86.30;95845.13;6301146;22;20011;-59
2022/03/11 02:38:36;;;;;;;11.90;10.52;;;;;;;3.18;86.80;95850.50;6301071;22;20058;-59
2022/03/11 02:41:02;;;;;;;14.02;10.50;;;;;;;3.14;86.69;95850.69;6301379;22;19999;-60
2022/03/11 02:43:27;;;;;;;11.95;10.85;;;;;;;3.11;86.38;95852.66;6300848;22;20432;-59
2022/03/11 02:45:53;;;;;;;12.85;11.00;;;;;;;3.10;85.97;95849.19;6301061;22;20025;-57
2022/03/11 02:48:18;;;;;;;11.68;10.45;;;;;;;3.12;86.43;95836.94;6300857;22;20000;-59
2022/03/11 02:50:44;;;;;;;12.10;10.60;;;;;;;3.08;86.99;95851.06;6301172;22;20007;-59
2022/03/11 02:53:09;;;;;;;12.68;11.38;;;;;;;2.98;86.92;95845.56;6301052;22;20007;-59
2022/03/11 02:55:35;;;;;;;11.57;10.38;;;;;;;2.93;87.59;95851.97;6300936;22;20000;-59
2022/03/11 02:58:00;;;;;;;11.85;10.55;;;;;;;2.91;87.02;95843.41;6301071;22;20071;-58
2022/03/11 03:00:26;;;;;;;11.40;10.25;;;;;;;2.91;86.80;95843.41;6300857;22;20080;-58
2022/03/11 03:02:51;;;;;;;12.70;10.77;;;;;;;2.91;87.01;95839.06;6300953;22;20003;-58
2022/03/11 03:05:17;;;;;;;11.35;10.18;;;;;;;2.82;87.12;95837.84;6300825;22;20031;-58
2022/03/11 03:07:43;;;;;;;12.05;10.90;;;;;;;2.73;87.38;95848.78;6301652;22;20004;-59
2022/03/11 03:10:12;;;;;;;12.80;10.40;;;;;;;2.74;87.42;95842.63;6301255;22;20473;-59
2022/03/11 03:12:39;;;;;;;12.40;11.30;;;;;;;2.72;87.61;95850.53;6300996;22;20458;-59
2022/03/11 03:15:06;;;;;;;13.40;10.40;;;;;;;2.63;87.58;95853.66;6301085;22;20082;-59
2022/03/11 03:17:31;;;;;;;11.63;10.43;;;;;;;2.62;87.02;95852.00;6300428;22;20431;-59
2022/03/11 03:19:56;;;;;;;12.75;9.85;;;;;;;2.61;87.87;95845.13;6301005;22;20008;-58
2022/03/11 03:22:22;;;;;;;12.43;10.73;;;;;;;2.58;88.39;95846.16;6300788;22;20003;-59
2022/03/11 03:24:47;;;;;;;11.80;10.60;;;;;;;2.54;87.73;95849.88;6300192;22;20442;-59
2022/03/11 03:27:13;;;;;;;11.38;10.18;;;;;;;2.53;87.88;95842.97;6300899;22;20074;-59
2022/03/11 03:29:39;;;;;;;14.05;11.35;;;;;;;2.47;88.02;95839.91;6300899;22;20011;-57
2022/03/11 03:32:05;;;;;;;11.50;10.48;;;;;;;2.36;88.20;95841.34;6273510;22;20011;-59
2022/03/11 03:34:35;;;;;;;12.75;10.88;;;;;;;2.33;88.37;95844.13;6300741;22;20398;-59
2022/03/11 03:37:05;;;;;;;11.88;10.35;;;;;;;2.29;89.14;95848.66;6300885;22;20059;-59
2022/03/11 03:39:30;;;;;;;12.82;11.52;;;;;;;2.27;89.09;95847.91;6300780;22;19999;-59
2022/03/11 03:41:56;;;;;;;13.10;11.80;;;;;;;2.31;87.89;95840.78;6300568;22;20035;-59
2022/03/11 03:44:22;;;;;;;12.48;11.15;;;;;;;2.24;88.32;95840.28;6300599;22;20014;-58
2022/03/11 03:46:49;;;;;;;11.60;9.50;;;;;;;2.18;88.11;95835.44;6300695;22;20007;-58
2022/03/11 03:49:14;;;;;;;9.93;8.93;;;;;;;2.15;88.14;95836.44;6300955;22;19999;-58
2022/03/11 03:51:40;;;;;;;9.50;8.57;;;;;;;2.11;88.22;95834.13;6300933;22;20011;-59
2022/03/11 03:54:06;;;;;;;10.85;9.05;;;;;;;2.16;87.84;95826.91;6300873;22;20291;-58
2022/03/11 03:56:35;;;;;;;11.05;9.45;;;;;;;2.16;88.18;95819.09;6300496;22;20009;-59
2022/03/11 03:59:04;;;;;;;12.57;9.43;;;;;;;2.07;87.90;95825.66;6300855;22;20003;-58
2022/03/11 04:01:32;;;;;;;10.52;9.52;;;;;;;2.00;88.16;95827.75;6300701;22;20008;-58
2022/03/11 04:03:57;;;;;;;10.23;9.23;;;;;;;1.94;88.51;95827.25;6300894;22;20499;-59
2022/03/11 04:06:22;;;;;;;10.55;9.50;;;;;;;1.90;88.85;95834.41;6300369;22;20068;-58
2022/03/11 04:08:48;;;;;;;13.30;9.52;;;;;;;1.85;88.30;95839.84;6273424;22;20012;-58
2022/03/11 04:11:13;;;;;;;14.18;9.18;;;;;;;2.00;88.39;95839.91;6300456;22;20059;-59
2022/03/11 04:13:38;;;;;;;10.85;9.80;;;;;;;1.92;89.64;95834.28;6300922;22;20446;-58
2022/03/11 04:16:04;;;;;;;11.27;10.10;;;;;;;1.90;89.96;95837.00;6300465;22;20003;-58
2022/03/11 04:18:29;;;;;;;12.43;11.07;;;;;;;2.02;88.68;95832.03;6300456;22;20004;-59
2022/03/11 04:20:55;;;;;;;11.60;9.80;;;;;;;1.94;90.11;95833.31;6300630;22;19999;-58
2022/03/11 04:23:20;;;;;;;10.27;9.25;;;;;;;1.90;90.06;95831.81;6300358;22;20380;-58
2022/03/11 04:25:46;;;;;;;10.48;9.38;;;;;;;1.85;89.33;95833.78;6300403;22;20019;-58
2022/03/11 04:28:11;;;;;;;13.75;9.88;;;;;;;1.88;89.48;95828.47;6300262;22;19999;-59
2022/03/11 04:30:36;;;;;;;10.88;9.35;;;;;;;1.86;88.57;95830.28;6299983;22;20079;-58
2022/03/11 04:33:02;;;;;;;11.27;10.18;;;;;;;1.83;89.43;95831.31;6299567;22;20003;-58
2022/03/11 04:35:27;;;;;;;11.80;10.15;;;;;;;1.78;89.56;95824.69;6299624;22;20011;-58
2022/03/11 04:37:52;;;;;;;11.55;10.38;;;;;;;1.77;89.75;95826.44;6300408;22;20003;-58
2022/03/11 04:40:18;;;;;;;11.95;10.27;;;;;;;1.79;89.17;95822.00;6300452;22;20014;-59
2022/03/11 04:42:44;;;;;;;10.73;9.63;;;;;;;1.82;89.95;95824.44;6300531;22;20082;-59
2022/03/11 04:45:10;;;;;;;10.82;9.75;;;;;;;1.93;89.04;95825.59;6299845;22;20046;-58
2022/03/11 04:47:35;;;;;;;10.63;9.32;;;;;;;1.91;89.75;95822.25;6299130;22;20094;-58
2022/03/11 04:50:01;;;;;;;11.07;9.80;;;;;;;1.89;89.19;95822.34;6299906;22;20025;-58
2022/03/11 04:52:26;;;;;;;11.02;9.82;;;;;;;1.88;88.73;95818.06;6300435;22;20014;-58
2022/03/11 04:54:51;;;;;;;12.00;10.02;;;;;;;1.85;89.58;95815.63;6300365;22;20437;-58
2022/03/11 04:57:17;;;;;;;12.20;9.75;;;;;;;1.85;88.23;95810.44;6300011;22;20000;-58
2022/03/11 04:59:44;;;;;;;13.27;9.40;;;;;;;1.85;89.48;95807.81;6300516;22;20014;-59
2022/03/11 05:02:09;;;;;;;12.57;10.30;;;;;;;1.85;89.02;95805.22;6300134;22;19999;-59
2022/03/11 05:04:35;;;;;;;11.25;8.63;;;;;;;1.91;89.15;95801.47;6300177;22;20010;-59
2022/03/11 05:07:00;;;;;;;13.68;9.85;;;;;;;1.96;88.77;95799.44;6299751;22;20004;-58
2022/03/11 05:09:25;;;;;;;11.35;9.90;;;;;;;1.95;89.35;95822.00;6300037;22;20003;-58
2022/03/11 05:11:51;;;;;;;10.65;9.65;;;;;;;1.95;90.81;95821.13;6300027;22;20016;-58
2022/03/11 05:14:16;;;;;;;10.27;9.27;;;;;;;1.99;90.90;95820.88;6300147;22;20412;-59
2022/03/11 05:16:42;;;;;;;17.35;9.70;;;;;;;2.04;89.18;95819.78;6299806;22;20141;-59
2022/03/11 05:19:07;;;;;;;12.60;10.57;;;;;;;2.06;90.38;95815.34;6300065;22;20011;-58
2022/03/11 05:21:33;;;;;;;11.32;10.32;;;;;;;2.15;89.70;95810.47;6299864;22;20602;-58
2022/03/11 05:23:58;;;;;;;12.73;10.02;;;;;;;2.21;89.35;95816.22;6300244;22;20075;-58
2022/03/11 05:26:28;;;;;;;13.15;10.57;;;;;;;2.22;90.04;95816.16;6299931;22;20007;-59
2022/03/11 05:28:59;;;;;;;11.65;10.55;;;;;;;2.20;88.86;95818.00;6300010;22;20009;-59
2022/03/11 05:31:28;;;;;;;14.18;11.63;;;;;;;2.41;87.75;95804.72;6300032;22;19999;-59
2022/03/11 05:33:54;;;;;;;12.43;11.25;;;;;;;2.38;89.05;95810.91;6300025;22;20013;-58
2022/03/11 05:36:21;;;;;;;10.63;9.65;;;;;;;2.34;89.40;95809.41;6299897;22;20331;-59
2022/03/11 05:38:46;;;;;;;11.10;9.93;;;;;;;2.36;88.90;95801.53;6299810;22;20053;-58
2022/03/11 05:41:12;;;;;;;11.73;10.68;;;;;;;2.34;90.80;95803.41;6299818;22;19995;-59
2022/03/11 05:43:37;;;;;;;11.40;10.15;;;;;;;2.32;90.63;95803.47;6300164;22;20176;-57
2022/03/11 05:46:04;;;;;;;12.95;9.27;;;;;;;2.34;90.31;95799.03;6300576;22;20039;-58
2022/03/11 05:48:29;;;;;;;14.07;10.43;;;;;;;2.32;90.55;95795.69;6301286;22;20026;-59
2022/03/11 05:50:55;;;;;;;12.00;9.80;;;;;;;2.35;90.05;95789.47;6301403;22;20743;-59
2022/03/11 05:53:20;;;;;;;9.95;8.93;;;;;;;2.40;89.68;95792.63;6273985;22;20014;-59
2022/03/11 05:55:46;;;;;;;11.23;10.13;;;;;;;2.29;91.10;95788.88;6274060;22;20082;-59
2022/03/11 05:58:11;;;;;;;15.70;11.23;;;;;;;2.28;91.87;95797.59;6301292;22;20055;-58
2022/03/11 06:00:37;;;;;;;12.55;11.32;;;;;;;2.33;91.64;95791.34;6301252;22;20439;-59
2022/03/11 06:03:02;;;;;;;12.45;11.27;;;;;;;2.41;90.76;95799.50;6301010;22;20010;-58
2022/03/11 06:05:27;;;;;;;10.70;9.63;;;;;;;2.49;91.24;95799.06;6300913;22;20007;-59
2022/03/11 06:07:53;;;;;;;11.05;9.93;;;;;;;2.52;90.33;95804.91;6301275;22;20051;-58
2022/03/11 06:10:18;;;;;;;10.27;9.27;;;;;;;2.52;90.11;95804.09;6300974;22;20059;-58
2022/03/11 06:12:43;;;;;;;12.93;9.32;;;;;;;2.52;90.08;95801.47;6300760;22;20018;-56
2022/03/11 06:15:14;;;;;;;12.45;9.25;;;;;;;2.52;89.54;95794.50;6301224;22;20030;-59
2022/03/11 06:17:40;;;;;;;10.07;8.93;;;;;;;2.61;89.44;95794.91;6300821;22;20423;-58
2022/03/11 06:20:08;;;;;;;12.95;11.10;;;;;;;2.67;88.36;95799.75;6301116;22;20058;-58
2022/03/11 06:22:37;;;;;;;15.43;12.95;;;;;;;2.67;88.88;95800.59;6301423;22;20346;-59
2022/03/11 06:25:03;;;;;;;14.48;12.32;;;;;;;2.78;87.99;95804.31;6300937;22;20074;-59
2022/03/11 06:27:29;;;;;;;12.30;10.95;;;;;;;2.83;87.39;95790.09;6301232;22;20023;-59
2022/03/11 06:29:54;;;;;;;12.05;10.85;;;;;;;2.92;87.01;95791.31;6301086;22;20010;-59
2022/03/11 06:32:20;;;;;;;12.63;10.32;;;;;;;2.95;87.07;95790.28;6300563;22;19999;-59
2022/03/11 06:34:48;;;;;;;12.30;8.75;;;;;;;3.05;85.81;95788.81;6301297;22;20014;-59
2022/03/11 06:37:14;;;;;;;9.18;8.35;;;;;;;3.37;84.49;95785.16;6301090;22;20003;-57
2022/03/11 06:39:39;;;;;;;9.50;8.10;;;;;;;3.41;83.64;95790.06;6298755;22;20346;-59
2022/03/11 06:42:05;;;;;;;10.75;9.65;;;;;;;3.43;84.45;95793.44;6298919;22;20438;-57
2022/03/11 06:44:31;;;;;;;9.65;8.77;;;;;;;3.48;84.57;95792.31;6298887;22;20010;-56
2022/03/11 06:46:56;;;;;;;11.45;7.75;;;;;;;3.50;83.97;95803.47;6300191;22;20102;-63
2022/03/11 06:49:22;;;;;;;9.27;8.32;;;;;;;3.54;84.09;95804.94;6301135;22;20035;-49
2022/03/11 06:51:47;;;;;;;9.48;7.97;;;;;;;3.66;83.26;95805.94;6300961;22;20033;-49
2022/03/11 06:54:13;;;;;;;14.07;7.72;;;;;;;3.60;83.85;95811.53;6300791;22;20400;-52
2022/03/11 06:56:38;;;;;;;8.68;7.82;;;;;;;3.63;83.66;95804.34;6298825;22;20012;-54
2022/03/11 06:59:04;;;;;;;11.63;7.50;;;;;;;3.73;83.29;95804.59;6298855;22;20007;-51
2022/03/11 07:01:30;;;;;;;9.38;7.65;;;;;;;3.82;82.61;95804.03;6299027;22;20087;-53
2022/03/11 07:03:55;;;;;;;9.00;8.10;;;;;;;3.92;82.27;95809.50;6299117;22;20361;-51
2022/03/11 07:06:21;;;;;;;11.82;9.02;;;;;;;4.03;81.28;95802.75;6298903;22;20017;-51
2022/03/11 07:08:46;;;;;;;10.18;8.85;;;;;;;4.07;81.43;95801.63;6299382;22;20386;-52
2022/03/11 07:11:12;;;;;;;10.02;9.13;;;;;;;4.16;81.17;95801.03;6298785;22;20397;-53
2022/03/11 07:13:37;;;;;;;14.50;9.13;;;;;;;4.20;81.54;95791.22;6299247;22;20014;-55
2022/03/11 07:16:04;;;;;;;13.15;8.57;;;;;;;4.25;80.89;95795.22;6297095;22;20355;-54
2022/03/11 07:18:30;;;;;;;11.77;7.50;;;;;;;4.49;79.28;95799.75;6271840;22;20018;-49
2022/03/11 07:20:55;;;;;;;8.07;7.38;;;;;;;4.59;78.57;95813.00;6273463;22;20011;-53
2022/03/11 07:23:21;;;;;;;9.30;7.38;;;;;;;4.55;78.43;95820.22;6300006;22;20010;-53
2022/03/11 07:25:46;;;;;;;8.02;7.22;;;;;;;4.61;78.31;95825.94;6299510;22;20007;-53
2022/03/11 07:28:12;;;;;;;10.07;8.20;;;;;;;4.65;79.03;95832.63;6301072;22;20427;-53
2022/03/11 07:30:38;;;;;;;9.57;7.97;;;;;;;4.71;78.95;95850.47;6300537;22;20003;-50
2022/03/11 07:33:03;;;;;;;12.13;8.30;;;;;;;4.73;78.97;95851.19;6300266;22;20451;-54
2022/03/11 07:35:29;;;;;;;9.50;8.60;;;;;;;4.83;79.00;95846.22;6299321;22;20014;-54
2022/03/11 07:37:54;;;;;;;12.77;7.80;;;;;;;4.96;78.45;95846.22;6273280;22;20010;-54
2022/03/11 07:40:20;;;;;;;10.45;8.18;;;;;;;5.03;78.52;95852.72;6300526;22;20003;-53
2022/03/11 07:42:45;;;;;;;21.02;7.45;;;;;;;5.21;78.02;95848.00;6300741;22;20070;-53
2022/03/11 07:45:14;;;;;;;7.70;6.95;;;;;;;5.40;77.18;95858.00;6300600;22;20086;-55
2022/03/11 07:47:41;;;;;;;8.25;7.45;;;;;;;5.66;75.70;95847.56;6300615;22;20078;-53
2022/03/11 07:50:10;;;;;;;8.27;7.63;;;;;;;5.95;74.41;95849.88;6300430;22;20007;-55
2022/03/11 07:52:37;;;;;;;9.07;8.02;;;;;;;6.11;73.01;95833.94;6300815;22;20044;-51
2022/03/11 07:55:04;;;;;;;9.48;7.45;;;;;;;6.31;71.99;95839.50;6300932;22;20139;-54
2022/03/11 07:57:30;;;;;;;8.55;7.32;;;;;;;6.46;71.19;95829.69;6300762;22;20011;-52
2022/03/11 07:59:55;;;;;;;8.60;7.63;;;;;;;6.64;71.08;95829.28;6301161;22;20007;-55
2022/03/11 08:02:20;;;;;;;9.63;7.70;;;;;;;6.81;69.97;95817.56;6300808;22;20398;-55
2022/03/11 08:04:46;;;;;;;9.95;7.90;;;;;;;6.76;69.93;95825.78;6300461;22;20003;-54
2022/03/11 08:07:11;;;;;;;9.50;8.60;;;;;;;6.86;69.88;95818.06;6300348;22;20017;-53
2022/03/11 08:09:42;;;;;;;9.27;8.30;;;;;;;7.02;68.98;95812.50;6300293;22;20003;-50
2022/03/11 08:12:07;;;;;;;8.88;8.07;;;;;;;7.20;68.52;95812.03;6300741;22;20016;-54
2022/03/11 08:14:33;;;;;;;10.05;9.05;;;;;;;7.46;67.11;95807.38;6300468;22;20003;-55
2022/03/11 08:16:58;;;;;;;14.00;10.18;;;;;;;7.81;66.22;95795.91;6300660;22;20011;-54
2022/03/11 08:19:24;;;;;;;9.90;9.00;;;;;;;8.19;64.69;95801.66;6300324;22;20035;-54
2022/03/11 08:21:51;;;;;;;9.93;8.50;;;;;;;8.46;63.20;95795.09;6300468;22;19999;-54
2022/03/11 08:24:17;;;;;;;7.30;6.70;;;;;;;8.58;62.15;95799.38;6300790;22;20003;-53
2022/03/11 08:26:42;;;;;;;6.90;6.30;;;;;;;8.72;62.11;95784.25;6300267;22;20098;-53
2022/03/11 08:29:08;;;;;;;7.55;6.03;;;;;;;8.98;62.12;95786.53;6300514;22;20007;-53
2022/03/11 08:31:33;;;;;;;7.00;6.40;;;;;;;9.08;62.69;95784.75;6300501;22;19999;-52
2022/03/11 08:33:59;;;;;;;15.27;6.20;;;;;;;9.08;62.00;95774.25;6300833;22;20044;-53
2022/03/11 08:36:24;;;;;;;7.88;7.07;;;;;;;9.25;61.71;95764.13;6300139;22;20002;-54
2022/03/11 08:38:50;;;;;;;7.15;6.45;;;;;;;9.55;59.92;95758.00;6300670;22;20003;-52
2022/03/11 08:41:16;;;;;;;6.55;5.85;;;;;;;9.79;59.28;95756.81;6300238;22;20026;-52
2022/03/11 08:43:43;;;;;;;5.80;5.30;;;;;;;9.92;58.16;95753.94;6300488;22;20003;-50
2022/03/11 08:46:09;;;;;;;6.38;4.78;;;;;;;9.96;58.39;95755.31;6300267;22;20427;-54
2022/03/11 08:48:36;;;;;;;6.20;5.60;;;;;;;10.09;59.47;95755.03;6300163;22;20078;-51
2022/03/11 08:51:02;;;;;;;6.78;6.18;;;;;;;10.25;58.42;95756.31;6300315;22;20030;-52
2022/03/11 08:53:27;;;;;;;6.97;6.18;;;;;;;10.17;58.28;95757.84;6300439;22;20003;-54
2022/03/11 08:55:53;;;;;;;7.28;6.47;;;;;;;10.35;57.91;95753.69;6272804;22;20455;-51
2022/03/11 08:58:19;;;;;;;7.65;6.40;;;;;;;10.54;55.70;95758.97;6300270;22;20010;-54
2022/03/11 09:00:44;;;;;;;5.93;5.32;;;;;;;10.44;55.06;95753.69;6300037;22;20090;-54
2022/03/11 09:03:10;;;;;;;6.47;5.80;;;;;;;10.38;55.83;95750.75;6300423;22;20384;-54
2022/03/11 09:05:37;;;;;;;6.32;5.72;;;;;;;10.50;55.61;95740.94;6299942;22;20007;-53
2022/03/11 09:08:03;;;;;;;6.22;5.63;;;;;;;10.65;55.42;95730.81;6300273;22;20338;-53
2022/03/11 09:10:29;;;;;;;5.55;5.10;;;;;;;10.68;54.57;95734.00;6299980;22;20079;-52
2022/03/11 09:12:54;;;;;;;5.78;5.28;;;;;;;10.66;53.56;95724.56;6300366;22;20316;-54
2022/03/11 09:15:20;;;;;;;6.35;5.78;;;;;;;10.59;54.08;95719.88;6300565;22;20030;-53
2022/03/11 09:17:45;;;;;;;7.95;5.15;;;;;;;10.67;53.82;95727.06;6300193;22;20030;-53
2022/03/11 09:20:12;;;;;;;5.80;5.20;;;;;;;10.47;54.41;95726.25;6300453;22;20457;-53
2022/03/11 09:22:39;;;;;;;5.75;5.10;;;;;;;10.29;55.47;95732.22;6301422;22;20052;-50
2022/03/11 09:25:07;;;;;;;5.50;5.03;;;;;;;10.06;55.28;95722.91;6301414;22;19999;-53
2022/03/11 09:27:32;;;;;;;6.13;5.60;;;;;;;10.22;55.48;95717.94;6301545;22;20055;-54
2022/03/11 09:29:58;;;;;;;5.80;5.22;;;;;;;10.21;55.10;95713.66;6301289;22;20011;-54
2022/03/11 09:32:24;;;;;;;5.47;4.55;;;;;;;10.30;54.73;95712.81;6301517;22;20010;-53
2022/03/11 09:34:50;;;;;;;7.93;5.05;;;;;;;10.57;54.14;95700.75;6301237;22;20011;-53
2022/03/11 09:37:15;;;;;;;5.13;4.72;;;;;;;10.94;51.94;95699.13;6301385;22;20121;-52
2022/03/11 09:39:40;;;;;;;6.30;5.65;;;;;;;11.11;52.04;95694.91;6301336;22;20003;-51
2022/03/11 09:42:06;;;;;;;6.30;4.85;;;;;;;11.80;51.36;95691.06;6301330;22;20004;-53
2022/03/11 09:44:32;;;;;;;6.20;5.45;;;;;;;12.33;48.94;95694.69;6301237;22;20012;-52
2022/03/11 09:46:59;;;;;;;5.32;4.82;;;;;;;12.62;47.52;95696.25;6301093;22;20092;-53
2022/03/11 09:49:24;;;;;;;7.30;5.22;;;;;;;12.94;46.78;95693.97;6301140;22;20004;-52
2022/03/11 09:51:50;;;;;;;5.32;4.82;;;;;;;13.26;45.75;95695.94;6301260;22;20011;-53
2022/03/11 09:54:16;;;;;;;5.28;4.72;;;;;;;13.37;45.97;95689.53;6301374;22;20045;-54
2022/03/11 09:56:43;;;;;;;5.05;4.60;;;;;;;13.54;45.85;95700.19;6301169;22;20006;-54
2022/03/11 09:59:10;;;;;;;7.50;4.80;;;;;;;13.67;45.35;95695.28;6301319;22;20007;-54
2022/03/11 10:01:35;;;;;;;6.35;5.25;;;;;;;14.01;45.17;95680.31;6273974;22;20056;-54
2022/03/11 10:04:05;;;;;;;6.85;5.70;;;;;;;14.22;44.07;95685.09;6274032;22;20023;-54
2022/03/11 10:06:42;;;;;;;12.70;6.13;;;;;;;14.34;41.77;95680.31;6301105;22;20014;-52
2022/03/11 10:09:17;;;;;;;8.13;7.32;;;;;;;14.73;38.45;95669.06;6301353;22;20006;-52
2022/03/11 10:11:42;;;;;;;13.43;7.35;;;;;;;15.12;38.76;95664.81;6300847;22;20087;-53
2022/03/11 10:14:08;;;;;;;9.75;8.35;;;;;;;15.24;35.16;95648.53;6301372;22;20041;-51
2022/03/11 10:16:35;;;;;;;8.38;7.47;;;;;;;15.44;36.27;95644.47;6300881;22;20034;-53
2022/03/11 10:19:07;;;;;;;8.70;7.80;;;;;;;15.77;34.49;95627.53;6301213;22;20007;-54
2022/03/11 10:21:38;;;;;;;9.50;7.50;;;;;;;16.04;34.83;95630.69;6301107;22;20003;-50
2022/03/11 10:24:06;;;;;;;10.20;6.72;;;;;;;16.13;34.91;95626.94;6301295;22;20004;-50
2022/03/11 10:26:39;;;;;;;7.80;6.97;;;;;;;16.50;35.38;95621.00;6301037;22;20139;-55
2022/03/11 10:29:08;;;;;;;8.85;7.13;;;;;;;16.32;35.29;95617.69;6301271;22;20011;-53
2022/03/11 10:31:37;;;;;;;8.00;7.30;;;;;;;16.33;33.35;95607.84;6300433;22;20003;-54
2022/03/11 10:34:20;;;;;;;7.22;6.53;;;;;;;15.95;34.02;95608.69;6300787;22;20007;-53
2022/03/11 10:37:09;;;;;;;8.10;6.75;;;;;;;16.06;33.80;95604.78;6301118;22;20063;-54
2022/03/11 10:39:37;;;;;;;7.72;6.28;;;;;;;16.24;33.48;95612.41;6301167;22;20010;-52
2022/03/11 10:42:12;;;;;;;6.88;5.90;;;;;;;16.20;33.06;95608.47;6301076;22;20011;-51
2022/03/11 10:44:53;;;;;;;6.60;6.00;;;;;;;16.22;32.50;95608.31;6300983;22;20003;-53
2022/03/11 10:47:20;;;;;;;7.00;6.35;;;;;;;16.02;33.10;95606.13;6300808;22;20320;-54
2022/03/11 10:49:50;;;;;;;7.28;6.47;;;;;;;16.00;33.42;95614.28;6300713;22;19999;-53
2022/03/11 10:52:31;;;;;;;11.75;10.55;;;;;;;15.99;30.74;95609.16;6301191;22;20074;-52
2022/03/11 10:54:58;;;;;;;11.23;10.13;;;;;;;15.74;32.01;95607.47;6273382;22;20388;-53
2022/03/11 10:57:35;;;;;;;12.02;9.38;;;;;;;15.62;32.73;95600.94;6300987;22;19999;-54
2022/03/11 11:00:20;;;;;;;10.13;9.15;;;;;;;16.18;31.35;95607.81;6300671;22;20069;-54
2022/03/11 11:02:46;;;;;;;10.53;9.27;;;;;;;16.31;29.51;95610.72;6301190;22;20041;-51
2022/03/11 11:05:15;;;;;;;9.82;8.70;;;;;;;15.55;31.78;95607.91;6300942;22;20006;-53
2022/03/11 11:07:41;;;;;;;9.38;8.40;;;;;;;15.31;31.67;95613.19;6273422;22;20397;-52
2022/03/11 11:10:15;;;;;;;10.88;9.77;;;;;;;14.86;32.80;95610.22;6301118;22;20343;-52
2022/03/11 11:12:41;;;;;;;11.35;9.88;;;;;;;14.70;32.40;95616.38;6300521;22;20362;-52
2022/03/11 11:15:10;;;;;;;12.15;10.90;;;;;;;14.40;30.70;95610.81;6301272;22;19999;-52
2022/03/11 11:17:37;;;;;;;12.90;11.48;;;;;;;14.20;31.78;95614.81;6300855;22;19999;-53
2022/03/11 11:20:04;;;;;;;19.55;10.23;;;;;;;15.11;28.97;95610.13;6300896;22;20018;-55
2022/03/11 11:22:31;;;;;;;11.30;10.13;;;;;;;14.57;30.66;95606.31;6300632;22;20002;-52
2022/03/11 11:25:01;;;;;;;11.93;10.40;;;;;;;14.65;31.03;95607.28;6300752;22;20004;-53